createdAt,value
2023-04-22T00:00:53.768Z,25.00
2023-04-22T00:01:53.771Z,25.00
2023-04-22T00:02:53.928Z,0.00
2023-04-22T00:03:53.902Z,0.00
2023-04-22T00:04:54.192Z,0.00
2023-04-22T00:05:53.820Z,0.00
2023-04-22T00:06:53.797Z,0.00
2023-04-22T00:07:53.809Z,0.00
2023-04-22T00:08:53.818Z,9.20
2023-04-22T00:09:53.822Z,25.00
2023-04-22T00:10:53.837Z,25.00
2023-04-22T00:11:53.844Z,24.98
2023-04-22T00:12:53.942Z,25.68
2023-04-22T00:13:53.870Z,25.00
2023-04-22T00:14:53.886Z,25.00
2023-04-22T00:15:53.977Z,25.00
2023-04-22T00:16:53.895Z,25.40
2023-04-22T00:17:53.950Z,24.80
2023-04-22T00:18:53.926Z,25.00
2023-04-22T00:19:53.928Z,25.42
2023-04-22T00:20:53.943Z,26.37
2023-04-22T00:21:53.952Z,26.03
2023-04-22T00:22:53.966Z,26.68
2023-04-22T00:23:53.973Z,25.27
2023-04-22T00:24:53.982Z,25.06
2023-04-22T00:25:53.999Z,25.54
2023-04-22T00:26:54.009Z,25.12
2023-04-22T00:27:54.018Z,25.31
2023-04-22T00:28:54.067Z,26.30
2023-04-22T00:29:54.043Z,25.85
2023-04-22T00:30:54.085Z,25.00
2023-04-22T00:31:54.123Z,26.61
2023-04-22T00:32:54.087Z,27.19
2023-04-22T00:33:54.082Z,26.00
2023-04-22T00:34:54.088Z,28.61
2023-04-22T00:35:54.100Z,27.67
2023-04-22T00:36:54.112Z,25.00
2023-04-22T00:37:54.140Z,28.00
2023-04-22T00:38:54.141Z,25.60
2023-04-22T00:39:54.157Z,27.69
2023-04-22T00:40:54.176Z,26.86
2023-04-22T00:41:54.184Z,28.00
2023-04-22T00:42:54.201Z,25.66
2023-04-22T00:43:54.221Z,25.93
2023-04-22T00:44:54.257Z,25.87
2023-04-22T00:45:54.247Z,26.66
2023-04-22T00:46:54.347Z,26.59
2023-04-22T00:47:54.311Z,26.21
2023-04-22T00:48:54.283Z,26.24
2023-04-22T00:49:54.294Z,26.68
2023-04-22T00:50:54.309Z,26.41
2023-04-22T00:51:54.330Z,26.14
2023-04-22T00:52:54.337Z,26.24
2023-04-22T00:53:54.347Z,28.01
2023-04-22T00:54:54.361Z,25.45
2023-04-22T00:55:54.383Z,27.29
2023-04-22T00:56:54.390Z,26.24
2023-04-22T00:57:54.407Z,26.80
2023-04-22T00:58:54.424Z,26.41
2023-04-22T00:59:54.441Z,26.12
2023-04-22T01:00:54.507Z,26.69
2023-04-22T01:01:54.521Z,25.73
2023-04-22T01:02:54.601Z,25.12
2023-04-22T01:03:54.905Z,25.61
2023-04-22T01:04:54.524Z,28.69
2023-04-22T01:05:54.520Z,27.95
2023-04-22T01:06:54.547Z,27.11
2023-04-22T01:07:54.568Z,25.00
2023-04-22T01:08:54.584Z,27.14
2023-04-22T01:09:54.606Z,27.97
2023-04-22T01:10:54.610Z,28.52
2023-04-22T01:11:54.616Z,27.42
2023-04-22T01:12:54.635Z,27.99
2023-04-22T01:13:54.637Z,27.19
2023-04-22T01:14:54.649Z,26.47
2023-04-22T01:15:54.671Z,26.40
2023-04-22T01:16:54.785Z,26.76
2023-04-22T01:17:54.698Z,25.00
2023-04-22T01:18:54.698Z,26.70
2023-04-22T01:19:54.716Z,26.39
2023-04-22T01:20:54.727Z,28.17
2023-04-22T01:21:54.737Z,25.80
2023-04-22T01:22:54.742Z,29.14
2023-04-22T01:23:54.747Z,27.91
2023-04-22T01:24:54.807Z,27.58
2023-04-22T01:25:54.794Z,27.84
2023-04-22T01:26:54.811Z,27.14
2023-04-22T01:27:54.820Z,26.88
2023-04-22T01:28:54.826Z,26.56
2023-04-22T01:29:54.851Z,28.69
2023-04-22T01:30:54.858Z,26.85
2023-04-22T01:31:54.895Z,25.90
2023-04-22T01:32:54.988Z,27.35
2023-04-22T01:33:54.879Z,27.10
2023-04-22T01:34:54.890Z,27.34
2023-04-22T01:35:54.898Z,25.78
2023-04-22T01:36:54.906Z,25.72
2023-04-22T01:37:54.927Z,25.75
2023-04-22T01:38:54.941Z,28.73
2023-04-22T01:39:54.949Z,26.59
2023-04-22T01:40:54.991Z,27.83
2023-04-22T01:41:54.988Z,28.97
2023-04-22T01:42:55.013Z,29.19
2023-04-22T01:43:55.013Z,26.25
2023-04-22T01:44:55.032Z,26.95
2023-04-22T01:45:55.069Z,26.32
2023-04-22T01:46:55.054Z,25.97
2023-04-22T01:47:55.128Z,25.98
2023-04-22T01:48:55.099Z,25.00
2023-04-22T01:49:55.107Z,27.17
2023-04-22T01:50:55.110Z,27.07
2023-04-22T01:51:55.130Z,25.62
2023-04-22T01:52:55.149Z,29.77
2023-04-22T01:53:55.173Z,28.63
2023-04-22T01:54:55.195Z,28.68
2023-04-22T01:55:55.201Z,28.73
2023-04-22T01:56:55.229Z,26.14
2023-04-22T01:57:55.240Z,27.49
2023-04-22T01:58:55.269Z,26.94
2023-04-22T01:59:55.254Z,27.06
2023-04-22T02:00:55.269Z,27.03
2023-04-22T02:01:55.355Z,27.90
2023-04-22T02:02:55.406Z,27.72
2023-04-22T02:03:55.511Z,27.62
2023-04-22T02:04:55.401Z,28.73
2023-04-22T02:05:55.379Z,28.88
2023-04-22T02:06:55.415Z,27.69
2023-04-22T02:07:55.367Z,27.14
2023-04-22T02:08:55.423Z,27.87
2023-04-22T02:09:55.388Z,27.43
2023-04-22T02:10:55.415Z,27.03
2023-04-22T02:11:55.462Z,26.72
2023-04-22T02:12:55.448Z,27.11
2023-04-22T02:13:55.456Z,26.65
2023-04-22T02:14:55.487Z,27.64
2023-04-22T02:15:55.545Z,27.45
2023-04-22T02:16:55.495Z,27.89
2023-04-22T02:17:55.515Z,26.86
2023-04-22T02:18:55.516Z,26.27
2023-04-22T02:19:55.575Z,27.82
2023-04-22T02:20:55.647Z,26.57
2023-04-22T02:21:55.552Z,27.68
2023-04-22T02:22:55.575Z,28.89
2023-04-22T02:23:55.582Z,26.51
2023-04-22T02:24:55.604Z,26.09
2023-04-22T02:25:55.594Z,25.70
2023-04-22T02:26:55.609Z,28.39
2023-04-22T02:27:55.683Z,28.42
2023-04-22T02:28:55.681Z,26.35
2023-04-22T02:29:55.658Z,27.64
2023-04-22T02:30:55.714Z,27.95
2023-04-22T02:31:55.825Z,28.19
2023-04-22T02:32:55.765Z,28.31
2023-04-22T02:33:55.711Z,29.44
2023-04-22T02:34:55.722Z,28.38
2023-04-22T02:35:55.802Z,26.84
2023-04-22T02:36:55.776Z,25.16
2023-04-22T02:37:55.760Z,27.24
2023-04-22T02:38:55.777Z,27.42
2023-04-22T02:39:55.813Z,28.44
2023-04-22T02:40:55.806Z,27.54
2023-04-22T02:41:55.819Z,26.14
2023-04-22T02:42:55.846Z,26.17
2023-04-22T02:43:55.883Z,27.19
2023-04-22T02:44:55.881Z,27.58
2023-04-22T02:45:55.940Z,26.46
2023-04-22T02:46:55.970Z,28.88
2023-04-22T02:47:55.957Z,26.60
2023-04-22T02:48:55.975Z,26.02
2023-04-22T02:49:55.965Z,25.74
2023-04-22T02:50:56.010Z,28.47
2023-04-22T02:51:56.335Z,29.35
2023-04-22T02:52:56.155Z,27.77
2023-04-22T02:53:56.052Z,29.20
2023-04-22T02:54:56.064Z,30.81
2023-04-22T02:55:56.104Z,29.94
2023-04-22T02:56:56.089Z,29.09
2023-04-22T02:57:56.114Z,29.48
2023-04-22T02:58:56.167Z,28.11
2023-04-22T02:59:56.158Z,26.22
2023-04-22T03:00:56.260Z,28.02
2023-04-22T03:01:56.212Z,27.97
2023-04-22T03:02:56.322Z,27.50
2023-04-22T03:03:56.505Z,25.80
2023-04-22T03:04:56.258Z,25.27
2023-04-22T03:05:56.288Z,28.68
2023-04-22T03:06:56.332Z,29.07
2023-04-22T03:07:56.315Z,27.84
2023-04-22T03:08:56.353Z,28.71
2023-04-22T03:09:56.353Z,27.05
2023-04-22T03:10:56.372Z,26.02
2023-04-22T03:11:56.381Z,28.89
2023-04-22T03:12:56.397Z,26.85
2023-04-22T03:13:56.412Z,27.92
2023-04-22T03:14:56.436Z,29.57
2023-04-22T03:15:56.477Z,27.07
2023-04-22T03:16:56.550Z,28.24
2023-04-22T03:17:56.580Z,26.49
2023-04-22T03:18:56.508Z,26.91
2023-04-22T03:19:56.525Z,25.45
2023-04-22T03:20:56.543Z,28.14
2023-04-22T03:21:56.561Z,28.89
2023-04-22T03:22:56.637Z,29.44
2023-04-22T03:23:56.596Z,28.11
2023-04-22T03:24:56.642Z,25.99
2023-04-22T03:25:56.617Z,25.00
2023-04-22T03:26:56.631Z,25.00
2023-04-22T03:27:56.634Z,25.65
2023-04-22T03:28:56.650Z,27.93
2023-04-22T03:29:56.666Z,25.13
2023-04-22T03:30:56.675Z,27.27
2023-04-22T03:31:56.722Z,28.31
2023-04-22T03:32:56.718Z,26.95
2023-04-22T03:33:56.719Z,28.39
2023-04-22T03:34:56.722Z,33.88
2023-04-22T03:35:56.769Z,37.61
2023-04-22T03:36:56.745Z,35.14
2023-04-22T03:37:56.746Z,36.76
2023-04-22T03:38:56.752Z,32.10
2023-04-22T03:39:56.762Z,28.77
2023-04-22T03:40:56.847Z,29.84
2023-04-22T03:41:56.773Z,27.58
2023-04-22T03:42:56.787Z,27.29
2023-04-22T03:43:57.933Z,27.25
2023-04-22T03:44:56.801Z,30.03
2023-04-22T03:45:56.865Z,25.38
2023-04-22T03:46:56.800Z,27.02
2023-04-22T03:47:56.823Z,26.15
2023-04-22T03:48:56.823Z,25.00
2023-04-22T03:49:56.811Z,26.83
2023-04-22T03:50:56.849Z,26.45
2023-04-22T03:51:56.826Z,25.00
2023-04-22T03:52:56.830Z,26.17
2023-04-22T03:53:56.828Z,26.68
2023-04-22T03:54:56.837Z,25.00
2023-04-22T03:55:56.871Z,25.74
2023-04-22T03:56:56.882Z,26.60
2023-04-22T03:57:56.855Z,26.09
2023-04-22T03:58:56.862Z,25.48
2023-04-22T03:59:56.862Z,25.24
2023-04-22T04:00:56.929Z,26.39
2023-04-22T04:01:56.907Z,27.25
2023-04-22T04:02:57.110Z,25.54
2023-04-22T04:03:57.073Z,28.72
2023-04-22T04:04:57.198Z,28.36
2023-04-22T04:05:56.930Z,28.05
2023-04-22T04:06:56.908Z,30.66
2023-04-22T04:07:56.891Z,29.87
2023-04-22T04:08:56.897Z,27.27
2023-04-22T04:09:56.899Z,29.34
2023-04-22T04:10:56.930Z,30.42
2023-04-22T04:11:56.911Z,30.78
2023-04-22T04:12:57.048Z,31.21
2023-04-22T04:13:56.914Z,32.47
2023-04-22T04:14:56.925Z,29.63
2023-04-22T04:15:57.052Z,28.97
2023-04-22T04:16:56.918Z,30.71
2023-04-22T04:17:56.986Z,28.78
2023-04-22T04:18:56.922Z,28.38
2023-04-22T04:19:56.918Z,28.46
2023-04-22T04:20:56.996Z,29.18
2023-04-22T04:21:56.941Z,26.33
2023-04-22T04:22:56.935Z,29.04
2023-04-22T04:23:56.933Z,26.72
2023-04-22T04:24:56.940Z,26.41
2023-04-22T04:25:57.009Z,26.47
2023-04-22T04:26:56.942Z,25.30
2023-04-22T04:27:56.941Z,25.20
2023-04-22T04:28:57.085Z,25.53
2023-04-22T04:29:56.985Z,27.69
2023-04-22T04:30:57.064Z,28.58
2023-04-22T04:31:57.119Z,29.04
2023-04-22T04:32:57.210Z,27.08
2023-04-22T04:33:57.177Z,29.09
2023-04-22T04:34:57.245Z,26.38
2023-04-22T04:35:57.351Z,28.27
2023-04-22T04:36:57.404Z,28.19
2023-04-22T04:37:57.443Z,28.23
2023-04-22T04:38:57.508Z,27.63
2023-04-22T04:39:57.581Z,27.91
2023-04-22T04:40:57.677Z,29.40
2023-04-22T04:41:57.717Z,29.07
2023-04-22T04:42:57.791Z,29.46
2023-04-22T04:43:57.868Z,29.80
2023-04-22T04:44:57.965Z,29.72
2023-04-22T04:45:58.010Z,30.12
2023-04-22T04:46:58.153Z,30.54
2023-04-22T04:47:58.181Z,30.79
2023-04-22T04:48:58.220Z,29.49
2023-04-22T04:49:58.292Z,30.25
2023-04-22T04:50:58.384Z,30.80
2023-04-22T04:51:58.451Z,29.47
2023-04-22T04:52:58.515Z,29.02
2023-04-22T04:53:58.608Z,30.86
2023-04-22T04:54:58.662Z,30.35
2023-04-22T04:55:58.736Z,28.85
2023-04-22T04:56:58.809Z,31.79
2023-04-22T04:57:58.891Z,28.94
2023-04-22T04:58:58.949Z,29.36
2023-04-22T04:59:59.014Z,29.43
2023-04-22T05:00:59.117Z,29.71
2023-04-22T05:01:59.214Z,28.95
2023-04-22T05:02:59.338Z,28.96
2023-04-22T05:03:59.508Z,28.35
2023-04-22T05:04:59.400Z,27.56
2023-04-22T05:05:59.439Z,29.36
2023-04-22T05:06:59.515Z,30.61
2023-04-22T05:07:59.554Z,27.51
2023-04-22T05:08:59.618Z,26.88
2023-04-22T05:09:59.696Z,25.87
2023-04-22T05:10:59.769Z,26.00
2023-04-22T05:11:59.836Z,27.82
2023-04-22T05:13:01.290Z,25.00
2023-04-22T05:13:59.903Z,25.00
2023-04-22T05:14:59.907Z,25.00
2023-04-22T05:15:59.929Z,25.00
2023-04-22T05:17:00.023Z,25.00
2023-04-22T05:17:59.944Z,25.26
2023-04-22T05:18:59.919Z,25.66
2023-04-22T05:19:59.926Z,26.24
2023-04-22T05:20:59.934Z,29.18
2023-04-22T05:21:59.944Z,25.00
2023-04-22T05:22:59.951Z,25.00
2023-04-22T05:23:59.937Z,27.63
2023-04-22T05:24:59.940Z,26.90
2023-04-22T05:25:59.943Z,26.85
2023-04-22T05:26:59.942Z,26.28
2023-04-22T05:27:59.956Z,28.65
2023-04-22T05:28:59.957Z,27.79
2023-04-22T05:29:59.971Z,28.17
2023-04-22T05:30:59.978Z,31.11
2023-04-22T05:32:00.067Z,32.95
2023-04-22T05:33:00.044Z,33.46
2023-04-22T05:33:59.984Z,33.76
2023-04-22T05:34:59.984Z,34.79
2023-04-22T05:35:59.988Z,35.01
2023-04-22T05:36:59.986Z,35.53
2023-04-22T05:37:59.988Z,36.89
2023-04-22T05:38:59.994Z,35.41
2023-04-22T05:40:00.006Z,36.29
2023-04-22T05:41:00.050Z,29.41
2023-04-22T05:42:00.068Z,17.64
2023-04-22T05:43:00.120Z,1.21
2023-04-22T05:44:00.163Z,0.00
2023-04-22T05:45:00.181Z,0.00
2023-04-22T05:46:00.334Z,20.24
2023-04-22T05:47:00.193Z,42.39
2023-04-22T05:48:00.225Z,61.52
2023-04-22T05:49:00.163Z,76.85
2023-04-22T05:50:00.158Z,97.81
2023-04-22T05:51:00.040Z,115.51
2023-04-22T05:52:00.042Z,124.83
2023-04-22T05:52:59.918Z,135.49
2023-04-22T05:53:59.803Z,146.06
2023-04-22T05:54:59.696Z,144.66
2023-04-22T05:55:59.616Z,139.80
2023-04-22T05:56:59.565Z,134.40
2023-04-22T05:57:59.492Z,140.18
2023-04-22T05:58:59.411Z,134.33
2023-04-22T05:59:59.303Z,133.40
2023-04-22T06:00:59.200Z,131.64
2023-04-22T06:01:59.143Z,133.12
2023-04-22T06:02:59.184Z,119.89
2023-04-22T06:03:59.210Z,112.44
2023-04-22T06:04:59.369Z,98.92
2023-04-22T06:05:59.028Z,78.62
2023-04-22T06:06:58.881Z,64.92
2023-04-22T06:07:58.830Z,49.33
2023-04-22T06:08:58.726Z,47.28
2023-04-22T06:10:04.710Z,51.99
2023-04-22T06:10:58.564Z,52.33
2023-04-22T06:11:58.406Z,54.22
2023-04-22T06:12:58.270Z,52.62
2023-04-22T06:13:58.138Z,55.58
2023-04-22T06:14:58.008Z,54.24
2023-04-22T06:15:57.927Z,56.49
2023-04-22T06:16:57.757Z,64.18
2023-04-22T06:17:57.685Z,61.98
2023-04-22T06:18:57.571Z,56.17
2023-04-22T06:19:57.505Z,55.65
2023-04-22T06:20:57.492Z,53.90
2023-04-22T06:21:57.398Z,53.95
2023-04-22T06:22:57.370Z,51.33
2023-04-22T06:23:57.336Z,47.02
2023-04-22T06:24:57.327Z,49.06
2023-04-22T06:25:58.163Z,44.31
2023-04-22T06:26:57.269Z,50.71
2023-04-22T06:27:57.256Z,46.03
2023-04-22T06:28:57.251Z,48.78
2023-04-22T06:29:57.233Z,41.24
2023-04-22T06:30:57.262Z,41.84
2023-04-22T06:31:57.203Z,37.92
2023-04-22T06:32:57.241Z,41.66
2023-04-22T06:33:57.182Z,38.24
2023-04-22T06:34:57.173Z,40.46
2023-04-22T06:35:57.187Z,32.40
2023-04-22T06:36:57.171Z,32.21
2023-04-22T06:37:57.146Z,29.13
2023-04-22T06:38:57.155Z,31.11
2023-04-22T06:39:57.141Z,30.88
2023-04-22T06:40:57.169Z,31.60
2023-04-22T06:41:57.138Z,27.02
2023-04-22T06:42:57.141Z,27.27
2023-04-22T06:43:57.147Z,28.98
2023-04-22T06:44:57.194Z,25.00
2023-04-22T06:45:57.308Z,27.36
2023-04-22T06:46:58.305Z,29.22
2023-04-22T06:47:57.382Z,28.38
2023-04-22T06:48:57.353Z,27.03
2023-04-22T06:49:57.404Z,30.05
2023-04-22T06:50:57.475Z,27.20
2023-04-22T06:51:57.491Z,28.11
2023-04-22T06:52:57.545Z,28.10
2023-04-22T06:53:57.579Z,29.55
2023-04-22T06:54:57.605Z,25.00
2023-04-22T06:55:57.651Z,25.80
2023-04-22T06:56:57.681Z,26.73
2023-04-22T06:57:57.713Z,28.06
2023-04-22T06:58:57.740Z,25.00
2023-04-22T06:59:57.860Z,31.07
2023-04-22T07:00:57.858Z,34.37
2023-04-22T07:01:57.939Z,27.82
2023-04-22T07:02:57.970Z,30.05
2023-04-22T07:03:58.012Z,24.69
2023-04-22T07:04:57.977Z,27.12
2023-04-22T07:05:58.003Z,26.36
2023-04-22T07:06:58.036Z,27.49
2023-04-22T07:07:58.076Z,25.00
2023-04-22T07:08:58.130Z,27.06
2023-04-22T07:09:58.150Z,28.98
2023-04-22T07:10:58.176Z,25.72
2023-04-22T07:11:58.216Z,25.78
2023-04-22T07:12:58.241Z,25.00
2023-04-22T07:13:58.310Z,26.65
2023-04-22T07:14:58.309Z,27.70
2023-04-22T07:15:58.414Z,26.94
2023-04-22T07:16:58.400Z,26.63
2023-04-22T07:17:58.466Z,26.64
2023-04-22T07:18:58.447Z,25.00
2023-04-22T07:19:58.474Z,25.00
2023-04-22T07:20:58.583Z,26.04
2023-04-22T07:21:58.541Z,27.29
2023-04-22T07:22:58.569Z,25.00
2023-04-22T07:23:58.604Z,30.41
2023-04-22T07:24:58.649Z,26.64
2023-04-22T07:25:58.698Z,25.00
2023-04-22T07:26:58.733Z,27.86
2023-04-22T07:27:58.738Z,25.00
2023-04-22T07:28:58.767Z,26.58
2023-04-22T07:29:58.806Z,25.62
2023-04-22T07:30:58.839Z,25.25
2023-04-22T07:31:58.903Z,25.65
2023-04-22T07:32:58.933Z,25.00
2023-04-22T07:33:58.941Z,27.15
2023-04-22T07:34:58.970Z,25.38
2023-04-22T07:35:59.016Z,26.04
2023-04-22T07:36:59.040Z,25.79
2023-04-22T07:37:59.083Z,29.74
2023-04-22T07:38:59.117Z,27.12
2023-04-22T07:39:59.139Z,27.11
2023-04-22T07:40:59.207Z,29.97
2023-04-22T07:41:59.223Z,27.00
2023-04-22T07:42:59.257Z,27.54
2023-04-22T07:43:59.309Z,28.20
2023-04-22T07:44:59.355Z,29.27
2023-04-22T07:45:59.387Z,25.00
2023-04-22T07:46:59.409Z,24.79
2023-04-22T07:47:59.493Z,27.96
2023-04-22T07:48:59.479Z,27.37
2023-04-22T07:49:59.514Z,25.06
2023-04-22T07:50:59.556Z,30.29
2023-04-22T07:51:59.585Z,25.00
2023-04-22T07:52:59.629Z,25.78
2023-04-22T07:53:59.642Z,25.24
2023-04-22T07:54:59.691Z,26.19
2023-04-22T07:56:02.019Z,25.74
2023-04-22T07:56:59.745Z,27.53
2023-04-22T07:57:59.700Z,28.72
2023-04-22T07:58:59.692Z,32.04
2023-04-22T07:59:59.690Z,25.00
2023-04-22T08:00:59.693Z,30.23
2023-04-22T08:01:59.719Z,37.28
2023-04-22T08:02:59.836Z,33.63
2023-04-22T08:03:59.989Z,39.69
2023-04-22T08:04:59.673Z,34.35
2023-04-22T08:05:59.660Z,35.46
2023-04-22T08:06:59.764Z,34.87
2023-04-22T08:07:59.645Z,35.09
2023-04-22T08:08:59.646Z,35.24
2023-04-22T08:09:59.631Z,36.24
2023-04-22T08:10:59.632Z,27.30
2023-04-22T08:11:59.625Z,18.88
2023-04-22T08:12:59.653Z,25.00
2023-04-22T08:13:59.665Z,25.00
2023-04-22T08:14:59.626Z,27.96
2023-04-22T08:15:59.632Z,26.42
2023-04-22T08:16:59.608Z,24.44
2023-04-22T08:17:59.704Z,29.45
2023-04-22T08:18:59.598Z,26.29
2023-04-22T08:19:59.583Z,28.61
2023-04-22T08:20:59.577Z,25.67
2023-04-22T08:21:59.571Z,25.06
2023-04-22T08:22:59.559Z,24.64
2023-04-22T08:23:59.567Z,31.93
2023-04-22T08:24:59.553Z,29.43
2023-04-22T08:25:59.563Z,33.77
2023-04-22T08:26:59.576Z,28.94
2023-04-22T08:27:59.546Z,27.05
2023-04-22T08:28:59.565Z,27.14
2023-04-22T08:29:59.548Z,30.50
2023-04-22T08:30:59.558Z,25.00
2023-04-22T08:31:59.523Z,29.08
2023-04-22T08:32:59.548Z,31.08
2023-04-22T08:33:59.514Z,32.72
2023-04-22T08:35:04.809Z,36.16
2023-04-22T08:35:59.505Z,36.46
2023-04-22T08:36:59.487Z,36.97
2023-04-22T08:37:59.480Z,30.52
2023-04-22T08:38:59.474Z,32.74
2023-04-22T08:39:59.471Z,34.84
2023-04-22T08:40:59.448Z,32.31
2023-04-22T08:41:59.441Z,30.30
2023-04-22T08:42:59.425Z,25.36
2023-04-22T08:43:59.422Z,25.18
2023-04-22T08:44:59.430Z,30.98
2023-04-22T08:45:59.395Z,28.76
2023-04-22T08:47:00.833Z,27.76
2023-04-22T08:47:59.401Z,27.77
2023-04-22T08:48:59.354Z,27.80
2023-04-22T08:49:59.344Z,22.73
2023-04-22T08:50:59.322Z,22.36
2023-04-22T08:51:59.312Z,17.26
2023-04-22T08:53:00.296Z,26.03
2023-04-22T08:53:59.297Z,30.42
2023-04-22T08:54:59.298Z,27.83
2023-04-22T08:55:59.302Z,24.96
2023-04-22T08:56:59.272Z,27.22
2023-04-22T08:57:59.262Z,31.41
2023-04-22T08:58:59.247Z,26.27
2023-04-22T08:59:59.232Z,26.44
2023-04-22T09:01:00.192Z,25.45
2023-04-22T09:01:59.262Z,27.47
2023-04-22T09:02:59.250Z,25.00
2023-04-22T09:03:59.388Z,28.81
2023-04-22T09:04:59.174Z,25.00
2023-04-22T09:05:59.154Z,30.03
2023-04-22T09:06:59.136Z,29.58
2023-04-22T09:07:59.127Z,31.21
2023-04-22T09:08:59.118Z,26.04
2023-04-22T09:09:59.103Z,27.24
2023-04-22T09:10:59.101Z,34.06
2023-04-22T09:11:59.079Z,30.98
2023-04-22T09:12:59.071Z,34.32
2023-04-22T09:13:59.053Z,26.45
2023-04-22T09:14:59.060Z,29.37
2023-04-22T09:16:00.006Z,25.30
2023-04-22T09:16:59.035Z,27.02
2023-04-22T09:17:59.031Z,32.93
2023-04-22T09:18:58.989Z,37.10
2023-04-22T09:19:59.807Z,39.26
2023-04-22T09:20:58.965Z,34.57
2023-04-22T09:21:58.957Z,30.40
2023-04-22T09:22:58.952Z,43.10
2023-04-22T09:23:58.924Z,34.33
2023-04-22T09:24:58.901Z,26.78
2023-04-22T09:25:58.888Z,33.22
2023-04-22T09:26:58.877Z,33.06
2023-04-22T09:27:58.866Z,28.74
2023-04-22T09:28:58.847Z,36.13
2023-04-22T09:29:58.829Z,35.32
2023-04-22T09:30:58.814Z,33.99
2023-04-22T09:31:58.828Z,25.57
2023-04-22T09:32:58.879Z,25.00
2023-04-22T09:33:58.788Z,31.59
2023-04-22T09:34:58.743Z,25.00
2023-04-22T09:35:58.731Z,27.98
2023-04-22T09:36:58.717Z,33.84
2023-04-22T09:37:58.694Z,29.65
2023-04-22T09:38:58.684Z,45.58
2023-04-22T09:39:58.670Z,51.56
2023-04-22T09:40:58.654Z,40.49
2023-04-22T09:41:58.637Z,39.69
2023-04-22T09:42:58.626Z,39.46
2023-04-22T09:43:58.607Z,34.11
2023-04-22T09:44:59.854Z,42.19
2023-04-22T09:45:58.632Z,36.23
2023-04-22T09:46:58.580Z,44.05
2023-04-22T09:47:58.580Z,47.99
2023-04-22T09:48:58.554Z,42.35
2023-04-22T09:49:58.508Z,40.10
2023-04-22T09:50:58.493Z,33.11
2023-04-22T09:51:58.478Z,36.47
2023-04-22T09:52:58.459Z,45.51
2023-04-22T09:53:58.438Z,48.27
2023-04-22T09:54:58.427Z,45.46
2023-04-22T09:55:58.413Z,43.64
2023-04-22T09:56:58.445Z,50.00
2023-04-22T09:57:58.395Z,53.74
2023-04-22T09:58:58.384Z,39.24
2023-04-22T09:59:58.361Z,45.68
2023-04-22T10:00:58.474Z,37.90
2023-04-22T10:01:58.346Z,40.86
2023-04-22T10:02:58.481Z,59.17
2023-04-22T10:03:58.341Z,60.87
2023-04-22T10:04:58.326Z,42.80
2023-04-22T10:05:58.289Z,40.05
2023-04-22T10:06:58.327Z,34.22
2023-04-22T10:07:58.283Z,38.97
2023-04-22T10:08:58.233Z,31.74
2023-04-22T10:09:58.221Z,27.11
2023-04-22T10:10:58.191Z,26.43
2023-04-22T10:11:58.170Z,27.52
2023-04-22T10:12:58.164Z,30.88
2023-04-22T10:13:58.142Z,31.29
2023-04-22T10:14:58.122Z,35.37
2023-04-22T10:15:58.117Z,42.95
2023-04-22T10:16:58.175Z,34.97
2023-04-22T10:17:58.105Z,39.01
2023-04-22T10:18:58.072Z,46.76
2023-04-22T10:19:58.058Z,35.06
2023-04-22T10:20:58.082Z,40.53
2023-04-22T10:21:58.058Z,42.34
2023-04-22T10:22:58.033Z,40.98
2023-04-22T10:23:58.004Z,40.18
2023-04-22T10:24:58.002Z,40.68
2023-04-22T10:25:57.997Z,35.91
2023-04-22T10:26:57.979Z,33.56
2023-04-22T10:27:57.951Z,35.28
2023-04-22T10:28:57.943Z,37.41
2023-04-22T10:29:57.929Z,34.26
2023-04-22T10:30:57.961Z,35.42
2023-04-22T10:31:57.905Z,39.63
2023-04-22T10:32:57.895Z,31.79
2023-04-22T10:33:58.078Z,28.31
2023-04-22T10:34:57.850Z,40.89
2023-04-22T10:35:57.842Z,53.46
2023-04-22T10:36:57.905Z,50.41
2023-04-22T10:37:57.808Z,48.79
2023-04-22T10:38:57.791Z,40.01
2023-04-22T10:39:57.770Z,34.18
2023-04-22T10:40:57.753Z,29.84
2023-04-22T10:41:57.763Z,31.97
2023-04-22T10:42:57.722Z,29.49
2023-04-22T10:43:57.713Z,28.94
2023-04-22T10:44:57.697Z,29.02
2023-04-22T10:45:57.729Z,25.00
2023-04-22T10:46:57.737Z,36.20
2023-04-22T10:47:57.958Z,42.66
2023-04-22T10:48:57.789Z,33.79
2023-04-22T10:49:57.827Z,38.32
2023-04-22T10:50:57.842Z,35.60
2023-04-22T10:51:57.873Z,30.36
2023-04-22T10:52:57.936Z,41.37
2023-04-22T10:53:57.907Z,53.40
2023-04-22T10:54:57.945Z,58.15
2023-04-22T10:55:57.969Z,50.24
2023-04-22T10:56:58.547Z,56.02
2023-04-22T10:57:58.018Z,62.89
2023-04-22T10:58:58.035Z,66.65
2023-04-22T10:59:58.065Z,68.67
2023-04-22T11:00:58.132Z,66.99
2023-04-22T11:01:58.235Z,62.95
2023-04-22T11:02:58.271Z,62.04
2023-04-22T11:03:58.224Z,65.85
2023-04-22T11:04:58.220Z,69.48
2023-04-22T11:05:58.223Z,69.83
2023-04-22T11:06:58.256Z,69.10
2023-04-22T11:07:58.275Z,72.42
2023-04-22T11:08:58.321Z,65.15
2023-04-22T11:09:58.323Z,71.15
2023-04-22T11:10:58.339Z,70.38
2023-04-22T11:11:58.357Z,74.62
2023-04-22T11:12:58.450Z,75.71
2023-04-22T11:13:58.408Z,80.79
2023-04-22T11:14:58.425Z,77.49
2023-04-22T11:15:58.463Z,80.63
2023-04-22T11:16:58.478Z,83.42
2023-04-22T11:17:58.626Z,84.12
2023-04-22T11:18:58.520Z,85.08
2023-04-22T11:19:58.530Z,80.71
2023-04-22T11:20:58.516Z,84.08
2023-04-22T11:21:58.522Z,87.35
2023-04-22T11:22:58.526Z,87.63
2023-04-22T11:23:58.533Z,87.75
2023-04-22T11:24:58.573Z,87.89
2023-04-22T11:25:58.606Z,83.13
2023-04-22T11:26:58.571Z,83.02
2023-04-22T11:27:58.570Z,79.77
2023-04-22T11:28:58.574Z,80.81
2023-04-22T11:29:58.919Z,84.36
2023-04-22T11:30:58.581Z,87.48
2023-04-22T11:31:58.664Z,92.84
2023-04-22T11:32:58.654Z,94.13
2023-04-22T11:33:58.631Z,92.99
2023-04-22T11:34:58.679Z,91.06
2023-04-22T11:35:58.703Z,90.35
2023-04-22T11:36:58.704Z,91.85
2023-04-22T11:37:58.710Z,96.55
2023-04-22T11:38:58.722Z,95.49
2023-04-22T11:40:17.485Z,102.89
2023-04-22T11:40:58.788Z,103.06
2023-04-22T11:41:58.718Z,103.58
2023-04-22T11:42:58.698Z,100.48
2023-04-22T11:43:58.683Z,97.40
2023-04-22T11:44:58.672Z,93.29
2023-04-22T11:45:58.708Z,95.23
2023-04-22T11:46:58.635Z,92.27
2023-04-22T11:47:58.640Z,96.22
2023-04-22T11:48:58.605Z,93.19
2023-04-22T11:49:58.591Z,91.05
2023-04-22T11:50:58.571Z,88.34
2023-04-22T11:51:58.557Z,88.90
2023-04-22T11:52:58.537Z,85.12
2023-04-22T11:53:58.525Z,87.77
2023-04-22T11:54:58.510Z,86.66
2023-04-22T11:55:58.489Z,88.87
2023-04-22T11:56:58.616Z,81.27
2023-04-22T11:57:58.469Z,77.13
2023-04-22T11:58:58.452Z,77.54
2023-04-22T11:59:58.452Z,76.45
2023-04-22T12:00:58.431Z,79.56
2023-04-22T12:01:58.472Z,81.67
2023-04-22T12:02:58.775Z,71.82
2023-04-22T12:03:58.495Z,72.41
2023-04-22T12:04:58.394Z,66.68
2023-04-22T12:05:58.323Z,65.67
2023-04-22T12:06:58.314Z,68.84
2023-04-22T12:07:58.295Z,66.54
2023-04-22T12:08:58.266Z,66.01
2023-04-22T12:09:58.248Z,64.11
2023-04-22T12:10:58.228Z,64.79
2023-04-22T12:11:58.219Z,61.58
2023-04-22T12:12:58.227Z,58.40
2023-04-22T12:13:58.183Z,55.85
2023-04-22T12:14:58.187Z,53.98
2023-04-22T12:15:58.165Z,51.24
2023-04-22T12:16:58.152Z,58.96
2023-04-22T12:17:58.274Z,58.50
2023-04-22T12:18:58.097Z,58.13
2023-04-22T12:19:58.072Z,58.88
2023-04-22T12:20:58.057Z,61.15
2023-04-22T12:21:58.043Z,55.41
2023-04-22T12:22:58.037Z,50.38
2023-04-22T12:23:58.019Z,46.47
2023-04-22T12:24:57.985Z,49.08
2023-04-22T12:25:57.969Z,44.38
2023-04-22T12:26:57.946Z,42.69
2023-04-22T12:27:57.928Z,44.69
2023-04-22T12:28:57.982Z,47.03
2023-04-22T12:29:57.894Z,41.36
2023-04-22T12:30:57.941Z,39.65
2023-04-22T12:31:57.857Z,30.88
2023-04-22T12:32:57.831Z,32.56
2023-04-22T12:33:57.845Z,32.80
2023-04-22T12:34:57.800Z,29.17
2023-04-22T12:35:57.790Z,29.80
2023-04-22T12:36:57.777Z,31.84
2023-04-22T12:37:57.747Z,25.70
2023-04-22T12:38:57.741Z,25.96
2023-04-22T12:39:57.709Z,28.93
2023-04-22T12:40:57.695Z,28.72
2023-04-22T12:41:57.680Z,26.86
2023-04-22T12:42:57.664Z,30.21
2023-04-22T12:43:57.647Z,28.73
2023-04-22T12:44:57.661Z,27.50
2023-04-22T12:45:57.656Z,30.32
2023-04-22T12:46:57.658Z,32.69
2023-04-22T12:47:57.627Z,30.57
2023-04-22T12:48:57.577Z,25.09
2023-04-22T12:49:57.569Z,33.64
2023-04-22T12:50:57.556Z,31.50
2023-04-22T12:51:57.542Z,28.04
2023-04-22T12:52:57.535Z,26.21